createdAt,value
2024-02-03T00:00:11.181Z,100289.13
2024-02-03T00:02:37.714Z,100297.59
2024-02-03T00:05:04.366Z,100295.41
2024-02-03T00:07:31.425Z,100294.75
2024-02-03T00:09:57.945Z,100298.41
2024-02-03T00:12:27.441Z,100298.56
2024-02-03T00:14:54.236Z,100297.22
2024-02-03T00:17:21.030Z,100293.34
2024-02-03T00:19:47.896Z,100290.84
2024-02-03T00:22:15.146Z,100285.16
2024-02-03T00:24:42.249Z,100282.81
2024-02-03T00:27:09.024Z,100281.13
2024-02-03T00:29:35.823Z,100290.28
2024-02-03T00:32:02.490Z,100282.91
2024-02-03T00:34:29.125Z,100283.25
2024-02-03T00:36:55.691Z,100275.28
2024-02-03T00:39:22.311Z,100278.66
2024-02-03T00:41:48.948Z,100293.00
2024-02-03T00:44:16.685Z,100279.00
2024-02-03T00:46:43.400Z,100288.53
2024-02-03T00:49:09.982Z,100276.38
2024-02-03T00:51:36.645Z,100274.59
2024-02-03T00:54:03.135Z,100269.75
2024-02-03T00:56:29.922Z,100275.06
2024-02-03T00:58:56.564Z,100270.97
2024-02-03T01:01:23.075Z,100271.47
2024-02-03T01:03:49.890Z,100269.66
2024-02-03T01:06:16.585Z,100268.00
2024-02-03T01:08:43.179Z,100268.84
2024-02-03T01:11:09.822Z,100269.03
2024-02-03T01:13:36.404Z,100263.53
2024-02-03T01:16:03.327Z,100262.34
2024-02-03T01:18:30.106Z,100262.53
2024-02-03T01:20:56.797Z,100263.81
2024-02-03T01:23:23.310Z,100265.16
2024-02-03T01:25:50.796Z,100269.00
2024-02-03T01:28:17.437Z,100269.63
2024-02-03T01:30:44.124Z,100274.97
2024-02-03T01:33:10.996Z,100279.66
2024-02-03T01:35:37.711Z,100279.31
2024-02-03T01:38:04.196Z,100271.91
2024-02-03T01:40:30.807Z,100267.59
2024-02-03T01:43:03.805Z,100268.59
2024-02-03T01:45:30.594Z,100264.56
2024-02-03T01:47:58.014Z,100265.69
2024-02-03T01:50:26.869Z,100258.88
2024-02-03T01:52:53.992Z,100261.16
2024-02-03T01:55:21.036Z,100258.25
2024-02-03T01:57:49.632Z,100254.59
2024-02-03T02:00:17.154Z,100250.31
2024-02-03T02:02:44.045Z,100237.44
2024-02-03T02:05:11.061Z,100230.31
2024-02-03T02:07:44.893Z,100224.91
2024-02-03T02:10:12.602Z,100225.94
2024-02-03T02:12:39.998Z,100216.47
2024-02-03T02:15:06.932Z,100211.00
2024-02-03T02:17:34.623Z,100203.75
2024-02-03T02:20:08.364Z,100194.06
2024-02-03T02:22:35.737Z,100200.13
2024-02-03T02:25:02.533Z,100191.19
2024-02-03T02:27:29.090Z,100193.09
2024-02-03T02:29:55.595Z,100179.75
2024-02-03T02:32:22.218Z,100188.59
2024-02-03T02:34:48.837Z,100191.47
2024-02-03T02:37:15.575Z,100183.09
2024-02-03T02:39:42.304Z,100177.75
2024-02-03T02:42:08.998Z,100172.22
2024-02-03T02:44:35.540Z,100191.47
2024-02-03T02:47:02.346Z,100183.59
2024-02-03T02:49:29.057Z,100176.28
2024-02-03T02:51:55.728Z,100178.47
2024-02-03T02:54:22.257Z,100174.47
2024-02-03T02:56:48.737Z,100180.00
2024-02-03T02:59:17.589Z,100174.84
2024-02-03T03:01:44.345Z,100174.13
2024-02-03T03:04:10.968Z,100173.84
2024-02-03T03:06:37.620Z,100176.16
2024-02-03T03:09:04.362Z,100181.28
2024-02-03T03:11:31.000Z,100173.38
2024-02-03T03:13:59.529Z,100182.75
2024-02-03T03:16:26.175Z,100172.81
2024-02-03T03:18:52.821Z,100166.19
2024-02-03T03:21:19.583Z,100177.81
2024-02-03T03:23:46.311Z,100165.25
2024-02-03T03:26:12.906Z,100154.19
2024-02-03T03:28:39.466Z,100154.94
2024-02-03T03:31:06.033Z,100151.72
2024-02-03T03:33:33.042Z,100152.63
2024-02-03T03:35:59.648Z,100136.88
2024-02-03T03:38:27.804Z,100144.38
2024-02-03T03:40:54.719Z,100142.97
2024-02-03T03:43:21.249Z,100139.25
2024-02-03T03:45:48.649Z,100148.88
2024-02-03T03:48:16.658Z,100145.78
2024-02-03T03:50:43.554Z,100153.38
2024-02-03T03:53:10.132Z,100156.91
2024-02-03T03:55:36.598Z,100158.38
2024-02-03T03:58:03.106Z,100162.44
2024-02-03T04:00:29.974Z,100164.00
2024-02-03T04:02:56.597Z,100160.47
2024-02-03T04:05:23.051Z,100157.16
2024-02-03T04:07:49.567Z,100157.19
2024-02-03T04:10:16.139Z,100146.41
2024-02-03T04:12:42.705Z,100163.69
2024-02-03T04:15:09.505Z,100155.50
2024-02-03T04:17:38.090Z,100157.53
2024-02-03T04:20:05.577Z,100157.53
2024-02-03T04:22:32.587Z,100160.47
2024-02-03T04:24:59.259Z,100161.88
2024-02-03T04:27:25.690Z,100169.13
2024-02-03T04:29:52.283Z,100160.38
2024-02-03T04:32:18.846Z,100164.63
2024-02-03T04:34:45.617Z,100160.31
2024-02-03T04:37:12.228Z,100159.56
2024-02-03T04:39:38.813Z,100163.28
2024-02-03T04:42:05.551Z,100162.44
2024-02-03T04:44:32.034Z,100157.47
2024-02-03T04:47:00.050Z,100158.69
2024-02-03T04:49:26.724Z,100162.00
2024-02-03T04:51:54.368Z,100156.41
2024-02-03T04:54:21.171Z,100152.47
2024-02-03T04:56:47.630Z,100164.53
2024-02-03T04:59:14.089Z,100166.16
2024-02-03T05:01:40.679Z,100167.72
2024-02-03T05:04:07.439Z,100169.66
2024-02-03T05:06:34.274Z,100151.72
2024-02-03T05:09:01.740Z,100154.47
2024-02-03T05:11:28.631Z,100153.16
2024-02-03T05:13:55.351Z,100164.59
2024-02-03T05:16:21.900Z,100158.41
2024-02-03T05:18:48.687Z,100162.94
2024-02-03T05:21:15.717Z,100173.50
2024-02-03T05:23:42.348Z,100183.19
2024-02-03T05:26:09.832Z,100170.19
2024-02-03T05:28:36.466Z,100169.34
2024-02-03T05:31:02.980Z,100170.75
2024-02-03T05:33:31.758Z,100175.94
2024-02-03T05:35:58.579Z,100175.38
2024-02-03T05:38:25.114Z,100179.88
2024-02-03T05:40:51.938Z,100182.34
2024-02-03T05:43:18.590Z,100176.09
2024-02-03T05:45:45.045Z,100193.69
2024-02-03T05:48:12.842Z,100193.50
2024-02-03T05:50:39.719Z,100201.31
2024-02-03T05:53:08.715Z,100196.19
2024-02-03T05:55:35.598Z,100203.63
2024-02-03T05:58:02.042Z,100205.47
2024-02-03T06:00:28.666Z,100203.06
2024-02-03T06:02:57.561Z,100200.19
2024-02-03T06:05:24.159Z,100200.03
2024-02-03T06:07:51.008Z,100187.16
2024-02-03T06:10:17.915Z,100196.47
2024-02-03T06:12:44.685Z,100192.13
2024-02-03T06:15:11.611Z,100188.81
2024-02-03T06:17:38.248Z,100190.00
2024-02-03T06:20:06.219Z,100184.19
2024-02-03T06:22:32.915Z,100197.25
2024-02-03T06:24:59.468Z,100201.88
2024-02-03T06:27:25.993Z,100193.94
2024-02-03T06:29:52.594Z,100200.28
2024-02-03T06:32:19.610Z,100212.56
2024-02-03T06:34:46.262Z,100214.50
2024-02-03T06:37:12.834Z,100214.31
2024-02-03T06:39:39.474Z,100225.97
2024-02-03T06:42:06.294Z,100227.78
2024-02-03T06:44:32.962Z,100237.84
2024-02-03T06:46:59.456Z,100228.72
2024-02-03T06:49:26.257Z,100242.88
2024-02-03T06:51:52.968Z,100229.50
2024-02-03T06:54:19.424Z,100239.56
2024-02-03T06:56:46.309Z,100247.47
2024-02-03T06:59:14.020Z,100247.28
2024-02-03T07:01:40.687Z,100255.78
2024-02-03T07:04:07.483Z,100249.88
2024-02-03T07:06:34.341Z,100240.69
2024-02-03T07:09:00.855Z,100243.47
2024-02-03T07:11:27.376Z,100222.63
2024-02-03T07:13:53.842Z,100220.72
2024-02-03T07:16:20.418Z,100225.69
2024-02-03T07:18:46.980Z,100233.28
2024-02-03T07:21:13.597Z,100227.56
2024-02-03T07:23:40.093Z,100217.06
2024-02-03T07:26:06.662Z,100222.78
2024-02-03T07:28:33.079Z,100220.50
2024-02-03T07:31:00.011Z,100222.91
2024-02-03T07:33:26.778Z,100236.06
2024-02-03T07:35:53.658Z,100226.94
2024-02-03T07:38:20.213Z,100227.16
2024-02-03T07:40:46.696Z,100236.44
2024-02-03T07:43:13.235Z,100233.75
2024-02-03T07:45:39.786Z,100239.00
2024-02-03T07:48:06.834Z,100238.91
2024-02-03T07:50:33.478Z,100231.56
2024-02-03T07:53:00.021Z,100240.41
2024-02-03T07:55:26.501Z,100231.19
2024-02-03T07:57:53.050Z,100242.06
2024-02-03T08:00:20.201Z,100250.03
2024-02-03T08:02:46.704Z,100247.25
2024-02-03T08:05:13.314Z,100238.09
2024-02-03T08:07:41.353Z,100232.00
2024-02-03T08:10:08.459Z,100235.44
2024-02-03T08:12:34.956Z,100246.50
2024-02-03T08:15:01.578Z,100239.91
2024-02-03T08:17:28.279Z,100244.00
2024-02-03T08:19:54.966Z,100246.66
2024-02-03T08:22:21.565Z,100245.00
2024-02-03T08:24:48.033Z,100255.69
2024-02-03T08:27:14.643Z,100264.47
2024-02-03T08:29:41.130Z,100267.34
2024-02-03T08:32:09.015Z,100263.47
2024-02-03T08:34:35.643Z,100267.34
2024-02-03T08:37:02.311Z,100268.50
2024-02-03T08:41:58.480Z,100265.19
2024-02-03T08:44:25.032Z,100268.75
2024-02-03T08:46:51.506Z,100283.03
2024-02-03T08:49:18.213Z,100281.53
2024-02-03T08:51:44.925Z,100282.47
2024-02-03T08:54:12.655Z,100276.75
2024-02-03T08:56:39.249Z,100282.56
2024-02-03T08:59:05.709Z,100286.97
2024-02-03T09:01:32.306Z,100288.09
2024-02-03T09:03:58.944Z,100288.34
2024-02-03T09:06:25.676Z,100294.38
2024-02-03T09:08:52.585Z,100280.72
2024-02-03T09:11:19.876Z,100278.84
2024-02-03T09:13:46.553Z,100275.38
2024-02-03T09:16:13.030Z,100280.44
2024-02-03T09:18:39.609Z,100277.31
2024-02-03T09:21:12.254Z,100276.16
2024-02-03T09:23:40.919Z,100282.03
2024-02-03T09:26:10.152Z,100274.44
2024-02-03T09:28:37.307Z,100290.75
2024-02-03T09:31:04.842Z,100293.94
2024-02-03T09:33:31.644Z,100291.44
2024-02-03T09:35:58.308Z,100289.03
2024-02-03T09:38:25.163Z,100288.28
2024-02-03T09:40:55.313Z,100285.78
2024-02-03T09:43:23.757Z,100289.81
2024-02-03T09:45:50.570Z,100296.22
2024-02-03T09:48:18.101Z,100294.38
2024-02-03T09:50:45.048Z,100298.69
2024-02-03T09:53:11.697Z,100314.47
2024-02-03T09:55:38.228Z,100317.53
2024-02-03T09:58:04.986Z,100310.59
2024-02-03T10:00:33.137Z,100307.66
2024-02-03T10:03:00.062Z,100310.59
2024-02-03T10:05:30.798Z,100300.63
2024-02-03T10:08:04.422Z,100307.72
2024-02-03T10:13:09.681Z,100291.81
2024-02-03T10:15:37.484Z,100301.31
2024-02-03T10:18:08.305Z,100289.38
2024-02-03T10:20:36.038Z,100291.91
2024-02-03T10:23:03.275Z,100286.03
2024-02-03T10:25:30.623Z,100275.47
2024-02-03T10:28:04.909Z,100279.06
2024-02-03T10:30:37.479Z,100267.16
2024-02-03T10:33:06.046Z,100267.53
2024-02-03T10:35:34.677Z,100270.47
2024-02-03T10:38:01.616Z,100268.50
2024-02-03T10:40:33.253Z,100265.03
2024-02-03T10:43:02.687Z,100266.59
2024-02-03T10:45:31.870Z,100272.06
2024-02-03T10:48:04.796Z,100268.31
2024-02-03T10:50:44.765Z,100267.97
2024-02-03T10:53:17.221Z,100265.97
2024-02-03T10:55:56.098Z,100272.66
2024-02-03T10:58:27.849Z,100268.75
2024-02-03T11:00:54.660Z,100257.44
2024-02-03T11:03:24.400Z,100258.28
2024-02-03T11:05:56.947Z,100242.22
2024-02-03T11:08:23.928Z,100252.19
2024-02-03T11:10:51.624Z,100241.13
2024-02-03T11:13:31.510Z,100247.19
2024-02-03T11:15:59.847Z,100228.47
2024-02-03T11:18:27.731Z,100234.84
2024-02-03T11:21:07.599Z,100220.44
2024-02-03T11:23:35.438Z,100221.91
2024-02-03T11:26:02.536Z,100228.28
2024-02-03T11:28:34.091Z,100226.22
2024-02-03T11:31:07.490Z,100216.09
2024-02-03T11:33:47.666Z,100219.47
2024-02-03T11:36:15.003Z,100212.03
2024-02-03T11:38:45.958Z,100224.44
2024-02-03T11:41:13.042Z,100204.47
2024-02-03T11:43:40.004Z,100206.16
2024-02-03T11:46:07.120Z,100202.47
2024-02-03T11:48:33.980Z,100203.31
2024-02-03T11:51:00.675Z,100201.31
2024-02-03T11:53:27.437Z,100187.28
2024-02-03T11:55:55.534Z,100200.47
2024-02-03T11:58:22.329Z,100191.34
2024-02-03T12:00:49.284Z,100188.44
2024-02-03T12:03:16.479Z,100188.44
2024-02-03T12:05:45.259Z,100198.97
2024-02-03T12:08:11.980Z,100185.31
2024-02-03T12:10:38.690Z,100188.00
2024-02-03T12:13:05.697Z,100186.03
2024-02-03T12:15:32.705Z,100177.63
2024-02-03T12:18:02.530Z,100168.78
2024-02-03T12:20:29.537Z,100164.00
2024-02-03T12:23:00.404Z,100165.22
2024-02-03T12:25:28.701Z,100162.97
2024-02-03T12:27:55.420Z,100157.59
2024-02-03T12:30:24.037Z,100160.94
2024-02-03T12:32:50.895Z,100166.53
2024-02-03T12:35:17.640Z,100171.91
2024-02-03T12:37:44.368Z,100154.34
2024-02-03T12:40:11.124Z,100158.75
2024-02-03T12:42:38.503Z,100154.81
2024-02-03T12:45:07.145Z,100157.09
2024-02-03T12:47:36.994Z,100161.84
2024-02-03T12:50:04.396Z,100152.16
2024-02-03T12:52:31.130Z,100156.09
2024-02-03T12:54:57.867Z,100150.06
2024-02-03T12:57:24.667Z,100156.06
2024-02-03T12:59:51.381Z,100144.88
2024-02-03T13:02:18.272Z,100126.50
2024-02-03T13:04:45.047Z,100127.56
2024-02-03T13:07:15.479Z,100127.56
2024-02-03T13:09:43.772Z,100123.44
2024-02-03T13:12:10.594Z,100124.66
2024-02-03T13:14:37.376Z,100119.94
2024-02-03T13:17:04.297Z,100138.72
2024-02-03T13:19:31.263Z,100132.09
2024-02-03T13:21:58.095Z,100125.69
2024-02-03T13:24:27.010Z,100143.06
2024-02-03T13:26:56.139Z,100130.81
2024-02-03T13:29:22.865Z,100143.38
2024-02-03T13:31:49.342Z,100150.38
2024-02-03T13:34:19.391Z,100125.66
2024-02-03T13:36:48.181Z,100149.16
2024-02-03T13:39:15.201Z,100147.72
2024-02-03T13:41:41.869Z,100155.56
2024-02-03T13:44:08.383Z,100143.13
2024-02-03T13:46:34.817Z,100157.53
2024-02-03T13:49:01.983Z,100155.50
2024-02-03T13:51:32.563Z,100168.97
2024-02-03T13:53:59.338Z,100147.66
2024-02-03T13:56:25.984Z,100162.78
2024-02-03T13:58:52.588Z,100153.91
2024-02-03T14:01:21.426Z,100160.69
2024-02-03T14:03:48.547Z,100153.50
2024-02-03T14:06:15.414Z,100164.38
2024-02-03T14:08:42.023Z,100156.31
2024-02-03T14:11:08.435Z,100158.38
2024-02-03T14:13:35.008Z,100162.97
2024-02-03T14:16:02.055Z,100161.47
2024-02-03T14:18:28.891Z,100170.69
2024-02-03T14:20:55.468Z,100162.09
2024-02-03T14:23:21.881Z,100169.06
2024-02-03T14:25:48.419Z,100176.50
2024-02-03T14:28:14.808Z,100178.56
2024-02-03T14:30:41.371Z,100188.00
2024-02-03T14:33:08.214Z,100192.66
2024-02-03T14:35:35.020Z,100199.38
2024-02-03T14:38:01.696Z,100200.22
2024-02-03T14:40:28.186Z,100208.44
2024-02-03T14:42:54.901Z,100208.50
2024-02-03T14:45:21.443Z,100209.50
2024-02-03T14:47:47.881Z,100217.31
2024-02-03T14:50:14.558Z,100207.56
2024-02-03T14:52:41.454Z,100216.84
2024-02-03T14:55:08.584Z,100219.75
2024-02-03T14:57:35.138Z,100219.56
2024-02-03T15:00:01.725Z,100217.31
2024-02-03T15:02:28.419Z,100216.06
2024-02-03T15:04:54.914Z,100215.47
2024-02-03T15:07:21.526Z,100218.59
2024-02-03T15:09:48.315Z,100217.69
2024-02-03T15:12:15.113Z,100218.13
2024-02-03T15:14:41.626Z,100211.59
2024-02-03T15:17:08.387Z,100212.03
2024-02-03T15:19:35.890Z,100205.41
2024-02-03T15:22:02.752Z,100212.81
2024-02-03T15:24:29.474Z,100197.34
2024-02-03T15:26:56.099Z,100194.69
2024-02-03T15:29:22.616Z,100199.03
2024-02-03T15:31:49.219Z,100194.88
2024-02-03T15:34:15.922Z,100192.53
2024-02-03T15:36:42.970Z,100198.09
2024-02-03T15:39:09.788Z,100200.41
2024-02-03T15:41:37.863Z,100202.63
2024-02-03T15:44:05.145Z,100197.19
2024-02-03T15:46:39.833Z,100202.25
2024-02-03T15:49:11.783Z,100202.28
2024-02-03T15:51:40.626Z,100204.34
2024-02-03T15:54:07.591Z,100204.38
2024-02-03T15:56:35.080Z,100200.06
2024-02-03T15:59:01.882Z,100203.53
2024-02-03T16:01:29.285Z,100207.16
2024-02-03T16:03:57.425Z,100212.09
2024-02-03T16:06:24.282Z,100217.22
2024-02-03T16:08:51.125Z,100211.72
2024-02-03T16:11:18.030Z,100216.69
2024-02-03T16:13:44.680Z,100210.94
2024-02-03T16:16:13.176Z,100216.94
2024-02-03T16:18:40.135Z,100211.03
2024-02-03T16:21:06.845Z,100212.31
2024-02-03T16:23:33.299Z,100219.53
2024-02-03T16:26:03.649Z,100222.44
2024-02-03T16:28:32.161Z,100219.06
2024-02-03T16:30:58.997Z,100214.38
2024-02-03T16:33:28.775Z,100214.25
2024-02-03T16:35:56.795Z,100232.47
2024-02-03T16:38:23.474Z,100207.81
2024-02-03T16:40:50.122Z,100222.44
2024-02-03T16:43:19.362Z,100224.19
2024-02-03T16:45:45.987Z,100234.16
2024-02-03T16:48:12.810Z,100235.59
2024-02-03T16:50:39.654Z,100219.28
2024-02-03T16:53:06.316Z,100226.78
2024-02-03T16:55:32.877Z,100234.78
2024-02-03T16:57:59.603Z,100227.31
2024-02-03T17:00:26.437Z,100232.94
2024-02-03T17:02:53.208Z,100232.69
2024-02-03T17:05:20.025Z,100224.88
2024-02-03T17:07:46.775Z,100228.63
2024-02-03T17:10:20.799Z,100232.53
2024-02-03T17:12:47.565Z,100227.28
2024-02-03T17:15:15.984Z,100217.06
2024-02-03T17:17:45.628Z,100223.97
2024-02-03T17:20:13.111Z,100208.13
2024-02-03T17:22:39.921Z,100216.91
2024-02-03T17:25:06.878Z,100218.94
2024-02-03T17:27:33.618Z,100229.06
2024-02-03T17:30:00.307Z,100215.50
2024-02-03T17:32:27.508Z,100232.41
2024-02-03T17:34:54.362Z,100221.81
2024-02-03T17:37:21.107Z,100224.50
2024-02-03T17:39:47.885Z,100230.72
2024-02-03T17:42:14.544Z,100230.47
2024-02-03T17:44:41.243Z,100235.56
2024-02-03T17:47:10.677Z,100225.03
2024-02-03T17:49:39.368Z,100229.25
2024-02-03T17:52:12.572Z,100234.31
2024-02-03T17:54:39.851Z,100232.72
2024-02-03T17:57:06.854Z,100235.22
2024-02-03T17:59:40.396Z,100236.50
2024-02-03T18:02:09.282Z,100229.75
2024-02-03T18:04:35.999Z,100229.63
2024-02-03T18:07:02.839Z,100221.56
2024-02-03T18:09:29.622Z,100232.69
2024-02-03T18:11:56.308Z,100242.19
2024-02-03T18:14:25.420Z,100244.88
2024-02-03T18:16:53.012Z,100245.31
2024-02-03T18:19:21.726Z,100247.53
2024-02-03T18:21:48.599Z,100246.22
2024-02-03T18:24:18.372Z,100243.41
2024-02-03T18:26:58.761Z,100243.97
2024-02-03T18:29:28.332Z,100242.06
2024-02-03T18:31:55.525Z,100239.06
2024-02-03T18:34:31.017Z,100234.84
2024-02-03T18:36:58.856Z,100231.28
2024-02-03T18:39:26.038Z,100236.44
2024-02-03T18:41:53.168Z,100234.75
2024-02-03T18:44:19.711Z,100238.47
2024-02-03T18:46:49.581Z,100239.28
2024-02-03T18:49:16.315Z,100233.44
2024-02-03T18:51:43.053Z,100241.72
2024-02-03T18:54:09.961Z,100238.41
2024-02-03T18:56:36.458Z,100238.31
2024-02-03T18:59:02.901Z,100242.53
2024-02-03T19:01:29.564Z,100244.75
2024-02-03T19:03:59.688Z,100252.91
2024-02-03T19:06:29.872Z,100244.41
2024-02-03T19:08:57.732Z,100252.59
2024-02-03T19:11:24.527Z,100250.75
2024-02-03T19:13:52.634Z,100254.84
2024-02-03T19:16:21.608Z,100249.38
2024-02-03T19:18:48.445Z,100249.63
2024-02-03T19:21:15.045Z,100250.59
2024-02-03T19:23:42.069Z,100248.31
2024-02-03T19:26:09.718Z,100251.66
2024-02-03T19:28:36.342Z,100251.03
2024-02-03T19:31:05.506Z,100263.94
2024-02-03T19:33:32.101Z,100258.13
2024-02-03T19:35:58.708Z,100267.44
2024-02-03T19:38:25.251Z,100262.13
2024-02-03T19:40:53.197Z,100263.47
2024-02-03T19:43:19.751Z,100257.13
2024-02-03T19:45:46.256Z,100264.81
2024-02-03T19:48:13.423Z,100256.69
2024-02-03T19:50:40.280Z,100255.00
2024-02-03T19:53:07.372Z,100258.00
2024-02-03T19:55:34.238Z,100258.97
2024-02-03T19:58:01.663Z,100251.75
2024-02-03T20:00:28.940Z,100269.53
2024-02-03T20:02:55.686Z,100253.66
2024-02-03T20:05:22.393Z,100256.06
2024-02-03T20:07:49.203Z,100249.41
2024-02-03T20:10:17.272Z,100257.34
2024-02-03T20:12:43.932Z,100257.19
2024-02-03T20:15:12.607Z,100265.19
2024-02-03T20:17:41.270Z,100261.63
2024-02-03T20:20:08.408Z,100260.84
2024-02-03T20:22:35.329Z,100267.00
2024-02-03T20:25:02.290Z,100266.69
2024-02-03T20:27:29.466Z,100268.66
2024-02-03T20:29:56.144Z,100269.09
2024-02-03T20:32:22.843Z,100263.09
2024-02-03T20:34:49.439Z,100255.31
2024-02-03T20:37:17.086Z,100255.63
2024-02-03T20:39:44.278Z,100250.50
2024-02-03T20:42:10.976Z,100251.34
2024-02-03T20:44:37.420Z,100251.56
2024-02-03T20:47:06.225Z,100249.50
2024-02-03T20:49:33.127Z,100247.34
2024-02-03T20:52:00.473Z,100245.41
2024-02-03T20:54:27.167Z,100256.16
2024-02-03T20:56:53.675Z,100250.81
2024-02-03T20:59:20.296Z,100242.25
2024-02-03T21:01:46.981Z,100247.13
2024-02-03T21:04:14.132Z,100233.41
2024-02-03T21:06:41.349Z,100235.63
2024-02-03T21:09:15.545Z,100231.13
2024-02-03T21:11:46.602Z,100223.59
2024-02-03T21:14:15.016Z,100239.34
2024-02-03T21:16:41.941Z,100246.25
2024-02-03T21:19:08.743Z,100240.38
2024-02-03T21:21:37.916Z,100221.81
2024-02-03T21:24:05.558Z,100232.63
2024-02-03T21:26:32.848Z,100237.84
2024-02-03T21:28:59.707Z,100233.22
2024-02-03T21:31:27.116Z,100230.53
2024-02-03T21:33:54.240Z,100243.34
2024-02-03T21:36:21.486Z,100223.63
2024-02-03T21:38:49.238Z,100229.47
2024-02-03T21:41:16.454Z,100238.16
2024-02-03T21:43:43.012Z,100237.31
2024-02-03T21:46:09.442Z,100240.47
2024-02-03T21:48:36.171Z,100237.09
2024-02-03T21:51:02.846Z,100217.59
2024-02-03T21:53:29.428Z,100223.06
2024-02-03T21:55:57.209Z,100215.75
2024-02-03T21:58:24.400Z,100223.13
2024-02-03T22:00:52.456Z,100222.59
2024-02-03T22:03:19.453Z,100228.16
2024-02-03T22:05:46.322Z,100226.38
2024-02-03T22:08:13.666Z,100233.94
2024-02-03T22:10:40.286Z,100227.84
2024-02-03T22:13:07.295Z,100243.94
2024-02-03T22:15:33.974Z,100248.53
2024-02-03T22:18:01.215Z,100247.22
2024-02-03T22:20:27.946Z,100245.63
2024-02-03T22:22:54.478Z,100248.78
2024-02-03T22:25:20.871Z,100239.72
2024-02-03T22:27:47.448Z,100230.56
2024-02-03T22:30:15.396Z,100237.50
2024-02-03T22:32:42.492Z,100243.09
2024-02-03T22:35:10.235Z,100238.75
2024-02-03T22:37:37.554Z,100233.72
2024-02-03T22:40:05.540Z,100233.34
2024-02-03T22:42:32.441Z,100227.25
2024-02-03T22:44:58.941Z,100223.28
2024-02-03T22:47:25.544Z,100221.34
2024-02-03T22:49:52.189Z,100215.56
2024-02-03T22:52:18.863Z,100214.00
2024-02-03T22:54:45.386Z,100220.31
2024-02-03T22:57:11.942Z,100226.25
2024-02-03T22:59:38.463Z,100223.09
2024-02-03T23:02:06.057Z,100216.53
2024-02-03T23:04:32.714Z,100211.28
2024-02-03T23:06:59.367Z,100213.44
2024-02-03T23:09:25.898Z,100221.66
2024-02-03T23:11:52.853Z,100220.53
2024-02-03T23:14:19.496Z,100213.41
2024-02-03T23:16:46.029Z,100200.56
2024-02-03T23:19:12.661Z,100195.97
2024-02-03T23:21:40.752Z,100210.69
2024-02-03T23:24:08.001Z,100194.75
2024-02-03T23:26:34.617Z,100192.34
2024-02-03T23:29:01.192Z,100192.53
2024-02-03T23:31:27.856Z,100184.06
2024-02-03T23:33:55.843Z,100187.31
2024-02-03T23:36:24.198Z,100187.50
2024-02-03T23:38:50.652Z,100179.16
2024-02-03T23:41:17.160Z,100159.25
2024-02-03T23:43:44.379Z,100161.41
2024-02-03T23:46:11.201Z,100157.47
2024-02-03T23:48:37.828Z,100153.75
2024-02-03T23:51:04.319Z,100159.81
2024-02-03T23:53:30.893Z,100164.78
2024-02-03T23:55:57.658Z,100157.06
2024-02-03T23:58:24.219Z,100151.53
